Terminal Aerodrome Forecast
Issued by NWS

Home | Current Version | Previous Version | Text Only | Print | Product List | Glossary Off
Versions: 1 2 3 4 5 6 7 8 9 10 11 12 13 14 15

000
FTUS43 KBIS 250540
TAFDIK
TAF
KDIK 250540Z 2506/2606 07006KT P6SM VCTS BKN090CB
      TEMPO 2506/2508 5SM -TSRA BKN060CB
     FM250900 06008KT P6SM BKN040
     FM251200 07006KT P6SM -SHRA OVC015
     FM251800 33007KT 6SM SHRA VCTS BKN025CB
     FM252300 31013KT P6SM OVC035=

USA.gov is the U.S. government's official web portal to all federal, state and local government web resources and services.